sensor_id;sensor_type;location;lat;lon;timestamp;P1;durP1;ratioP1;P2;durP2;ratioP2
48361;SDS011;34510;51.888;5.670;2023-03-14T00:03:41;789.75;;;614.47;;
48361;SDS011;34510;51.888;5.670;2023-03-14T00:08:44;795.30;;;615.13;;
48361;SDS011;34510;51.888;5.670;2023-03-14T00:13:47;793.75;;;612.97;;
48361;SDS011;34510;51.888;5.670;2023-03-14T00:18:52;711.28;;;632.53;;
48361;SDS011;34510;51.888;5.670;2023-03-14T00:23:54;765.72;;;590.63;;
48361;SDS011;34510;51.888;5.670;2023-03-14T00:28:56;798.38;;;621.33;;
48361;SDS011;34510;51.888;5.670;2023-03-14T00:33:58;758.28;;;592.95;;
48361;SDS011;34510;51.888;5.670;2023-03-14T00:39:00;780.58;;;604.15;;
48361;SDS011;34510;51.888;5.670;2023-03-14T00:44:02;775.53;;;575.47;;
48361;SDS011;34510;51.888;5.670;2023-03-14T00:49:04;792.28;;;606.95;;
48361;SDS011;34510;51.888;5.670;2023-03-14T00:54:05;788.42;;;561.47;;
48361;SDS011;34510;51.888;5.670;2023-03-14T00:59:07;792.63;;;583.83;;
48361;SDS011;34510;51.888;5.670;2023-03-14T01:04:09;795.65;;;592.42;;
48361;SDS011;34510;51.888;5.670;2023-03-14T01:09:12;788.13;;;570.53;;
48361;SDS011;34510;51.888;5.670;2023-03-14T01:14:14;788.50;;;572.25;;
48361;SDS011;34510;51.888;5.670;2023-03-14T01:19:16;792.95;;;577.20;;
48361;SDS011;34510;51.888;5.670;2023-03-14T01:24:17;787.95;;;587.10;;
48361;SDS011;34510;51.888;5.670;2023-03-14T01:29:19;780.47;;;580.60;;
48361;SDS011;34510;51.888;5.670;2023-03-14T01:34:22;760.38;;;559.80;;
48361;SDS011;34510;51.888;5.670;2023-03-14T01:39:24;794.10;;;569.20;;
48361;SDS011;34510;51.888;5.670;2023-03-14T01:44:26;795.97;;;576.60;;
48361;SDS011;34510;51.888;5.670;2023-03-14T01:49:29;792.70;;;597.78;;
48361;SDS011;34510;51.888;5.670;2023-03-14T01:54:46;788.20;;;574.00;;
48361;SDS011;34510;51.888;5.670;2023-03-14T01:59:59;791.15;;;564.30;;
48361;SDS011;34510;51.888;5.670;2023-03-14T02:05:14;785.80;;;564.30;;
48361;SDS011;34510;51.888;5.670;2023-03-14T02:10:30;783.42;;;539.03;;
48361;SDS011;34510;51.888;5.670;2023-03-14T02:15:36;783.38;;;542.65;;
48361;SDS011;34510;51.888;5.670;2023-03-14T02:26:11;754.80;;;509.88;;
48361;SDS011;34510;51.888;5.670;2023-03-14T02:31:20;761.25;;;509.13;;
48361;SDS011;34510;51.888;5.670;2023-03-14T02:36:24;755.63;;;515.90;;
48361;SDS011;34510;51.888;5.670;2023-03-14T02:41:26;751.88;;;496.42;;
48361;SDS011;34510;51.888;5.670;2023-03-14T02:46:35;754.40;;;511.83;;
48361;SDS011;34510;51.888;5.670;2023-03-14T02:51:37;754.42;;;518.80;;
48361;SDS011;34510;51.888;5.670;2023-03-14T02:56:41;749.47;;;500.73;;
48361;SDS011;34510;51.888;5.670;2023-03-14T03:01:46;750.15;;;495.63;;
48361;SDS011;34510;51.888;5.670;2023-03-14T03:06:48;749.40;;;493.60;;
48361;SDS011;34510;51.888;5.670;2023-03-14T03:11:50;754.70;;;495.85;;
48361;SDS011;34510;51.888;5.670;2023-03-14T03:16:56;758.58;;;497.40;;
48361;SDS011;34510;51.888;5.670;2023-03-14T03:21:58;749.40;;;498.50;;
48361;SDS011;34510;51.888;5.670;2023-03-14T03:27:00;757.42;;;493.67;;
48361;SDS011;34510;51.888;5.670;2023-03-14T03:32:02;754.75;;;505.27;;
48361;SDS011;34510;51.888;5.670;2023-03-14T03:37:05;753.95;;;504.48;;
48361;SDS011;34510;51.888;5.670;2023-03-14T03:42:11;754.83;;;492.65;;
48361;SDS011;34510;51.888;5.670;2023-03-14T03:47:13;746.50;;;486.35;;
48361;SDS011;34510;51.888;5.670;2023-03-14T03:52:15;756.20;;;485.58;;
48361;SDS011;34510;51.888;5.670;2023-03-14T03:57:18;750.95;;;492.58;;
48361;SDS011;34510;51.888;5.670;2023-03-14T04:02:20;757.03;;;508.77;;
48361;SDS011;34510;51.888;5.670;2023-03-14T04:07:24;756.78;;;502.80;;
48361;SDS011;34510;51.888;5.670;2023-03-14T04:12:26;756.08;;;515.08;;
48361;SDS011;34510;51.888;5.670;2023-03-14T04:17:32;754.60;;;508.03;;
48361;SDS011;34510;51.888;5.670;2023-03-14T04:22:34;748.33;;;497.05;;
48361;SDS011;34510;51.888;5.670;2023-03-14T04:27:36;748.90;;;502.02;;
48361;SDS011;34510;51.888;5.670;2023-03-14T04:32:45;748.53;;;493.05;;
48361;SDS011;34510;51.888;5.670;2023-03-14T04:37:47;753.95;;;509.90;;
48361;SDS011;34510;51.888;5.670;2023-03-14T04:42:51;749.53;;;500.15;;
48361;SDS011;34510;51.888;5.670;2023-03-14T04:47:54;748.55;;;504.60;;
48361;SDS011;34510;51.888;5.670;2023-03-14T04:52:56;748.25;;;503.73;;
48361;SDS011;34510;51.888;5.670;2023-03-14T04:57:59;750.85;;;502.58;;
48361;SDS011;34510;51.888;5.670;2023-03-14T05:03:01;752.17;;;501.48;;
48361;SDS011;34510;51.888;5.670;2023-03-14T05:13:51;746.38;;;482.92;;
48361;SDS011;34510;51.888;5.670;2023-03-14T05:19:16;751.90;;;511.05;;
48361;SDS011;34510;51.888;5.670;2023-03-14T05:24:30;746.80;;;491.20;;
48361;SDS011;34510;51.888;5.670;2023-03-14T05:29:50;750.35;;;508.77;;
48361;SDS011;34510;51.888;5.670;2023-03-14T05:35:10;745.40;;;493.70;;
48361;SDS011;34510;51.888;5.670;2023-03-14T05:40:20;756.45;;;491.60;;
48361;SDS011;34510;51.888;5.670;2023-03-14T05:45:45;747.40;;;502.08;;
48361;SDS011;34510;51.888;5.670;2023-03-14T05:51:01;742.58;;;474.23;;
48361;SDS011;34510;51.888;5.670;2023-03-14T05:56:22;747.83;;;497.30;;
48361;SDS011;34510;51.888;5.670;2023-03-14T06:01:32;741.85;;;475.15;;
48361;SDS011;34510;51.888;5.670;2023-03-14T06:06:49;743.58;;;481.13;;
48361;SDS011;34510;51.888;5.670;2023-03-14T06:11:51;750.45;;;497.77;;
48361;SDS011;34510;51.888;5.670;2023-03-14T06:16:53;733.45;;;468.70;;
48361;SDS011;34510;51.888;5.670;2023-03-14T06:21:57;734.75;;;473.05;;
48361;SDS011;34510;51.888;5.670;2023-03-14T06:27:00;729.50;;;450.70;;
48361;SDS011;34510;51.888;5.670;2023-03-14T06:32:04;736.22;;;474.73;;
48361;SDS011;34510;51.888;5.670;2023-03-14T06:37:07;738.78;;;476.05;;
48361;SDS011;34510;51.888;5.670;2023-03-14T06:42:09;739.97;;;479.40;;
48361;SDS011;34510;51.888;5.670;2023-03-14T06:47:12;736.55;;;454.35;;
48361;SDS011;34510;51.888;5.670;2023-03-14T06:52:18;738.28;;;470.65;;
48361;SDS011;34510;51.888;5.670;2023-03-14T06:57:20;740.63;;;472.38;;
48361;SDS011;34510;51.888;5.670;2023-03-14T07:02:22;736.65;;;476.75;;
48361;SDS011;34510;51.888;5.670;2023-03-14T07:07:42;739.30;;;464.55;;
48361;SDS011;34510;51.888;5.670;2023-03-14T07:12:44;739.10;;;468.70;;
48361;SDS011;34510;51.888;5.670;2023-03-14T07:17:46;733.63;;;458.40;;
48361;SDS011;34510;51.888;5.670;2023-03-14T07:22:54;735.20;;;458.40;;
48361;SDS011;34510;51.888;5.670;2023-03-14T07:28:08;736.85;;;458.27;;
48361;SDS011;34510;51.888;5.670;2023-03-14T07:33:12;728.60;;;435.63;;
48361;SDS011;34510;51.888;5.670;2023-03-14T07:38:14;724.13;;;406.23;;
48361;SDS011;34510;51.888;5.670;2023-03-14T07:43:32;726.67;;;403.98;;
48361;SDS011;34510;51.888;5.670;2023-03-14T07:48:35;720.53;;;406.35;;
48361;SDS011;34510;51.888;5.670;2023-03-14T07:53:37;722.10;;;412.20;;
48361;SDS011;34510;51.888;5.670;2023-03-14T07:58:39;719.25;;;394.75;;
48361;SDS011;34510;51.888;5.670;2023-03-14T08:03:41;717.60;;;406.83;;
48361;SDS011;34510;51.888;5.670;2023-03-14T08:08:43;725.03;;;424.80;;
48361;SDS011;34510;51.888;5.670;2023-03-14T08:13:45;724.93;;;429.33;;
48361;SDS011;34510;51.888;5.670;2023-03-14T08:18:51;720.87;;;411.97;;
48361;SDS011;34510;51.888;5.670;2023-03-14T08:23:53;733.37;;;453.73;;
48361;SDS011;34510;51.888;5.670;2023-03-14T08:28:55;727.13;;;436.10;;
48361;SDS011;34510;51.888;5.670;2023-03-14T08:34:00;720.10;;;413.67;;
48361;SDS011;34510;51.888;5.670;2023-03-14T08:39:03;716.23;;;403.50;;
48361;SDS011;34510;51.888;5.670;2023-03-14T08:44:06;716.37;;;388.33;;
48361;SDS011;34510;51.888;5.670;2023-03-14T08:49:13;724.67;;;414.45;;
48361;SDS011;34510;51.888;5.670;2023-03-14T08:54:16;731.83;;;444.10;;
48361;SDS011;34510;51.888;5.670;2023-03-14T08:59:18;731.10;;;429.20;;
48361;SDS011;34510;51.888;5.670;2023-03-14T09:04:20;737.97;;;446.00;;
48361;SDS011;34510;51.888;5.670;2023-03-14T09:09:22;733.07;;;424.50;;
48361;SDS011;34510;51.888;5.670;2023-03-14T09:14:24;721.60;;;394.57;;
48361;SDS011;34510;51.888;5.670;2023-03-14T09:19:26;732.60;;;418.23;;
48361;SDS011;34510;51.888;5.670;2023-03-14T09:24:28;727.20;;;416.00;;
48361;SDS011;34510;51.888;5.670;2023-03-14T09:29:30;707.43;;;364.10;;
48361;SDS011;34510;51.888;5.670;2023-03-14T09:34:32;714.20;;;378.50;;
48361;SDS011;34510;51.888;5.670;2023-03-14T09:39:37;712.00;;;367.83;;
48361;SDS011;34510;51.888;5.670;2023-03-14T09:44:39;713.57;;;377.13;;
48361;SDS011;34510;51.888;5.670;2023-03-14T09:49:50;720.07;;;386.17;;
48361;SDS011;34510;51.888;5.670;2023-03-14T10:00:27;722.93;;;413.27;;
48361;SDS011;34510;51.888;5.670;2023-03-14T10:05:32;721.53;;;398.97;;
48361;SDS011;34510;51.888;5.670;2023-03-14T10:10:33;715.50;;;379.97;;
48361;SDS011;34510;51.888;5.670;2023-03-14T10:15:36;710.90;;;375.57;;
48361;SDS011;34510;51.888;5.670;2023-03-14T10:20:39;712.23;;;374.57;;
48361;SDS011;34510;51.888;5.670;2023-03-14T10:31:24;721.47;;;390.77;;
48361;SDS011;34510;51.888;5.670;2023-03-14T10:36:28;717.37;;;381.30;;
48361;SDS011;34510;51.888;5.670;2023-03-14T10:41:32;719.87;;;378.30;;
48361;SDS011;34510;51.888;5.670;2023-03-14T10:46:35;723.77;;;395.83;;
48361;SDS011;34510;51.888;5.670;2023-03-14T10:51:55;729.50;;;397.87;;
48361;SDS011;34510;51.888;5.670;2023-03-14T10:57:03;722.43;;;411.40;;
48361;SDS011;34510;51.888;5.670;2023-03-14T11:20:54;722.83;;;376.43;;
48361;SDS011;34510;51.888;5.670;2023-03-14T11:26:51;734.07;;;428.70;;
48361;SDS011;34510;51.888;5.670;2023-03-14T11:32:00;729.33;;;392.27;;
48361;SDS011;34510;51.888;5.670;2023-03-14T11:37:14;726.70;;;392.43;;
48361;SDS011;34510;51.888;5.670;2023-03-14T11:42:25;715.30;;;370.20;;
48361;SDS011;34510;51.888;5.670;2023-03-14T11:47:30;712.27;;;348.93;;
48361;SDS011;34510;51.888;5.670;2023-03-14T11:52:37;717.03;;;354.67;;
48361;SDS011;34510;51.888;5.670;2023-03-14T11:57:47;716.53;;;353.87;;
48361;SDS011;34510;51.888;5.670;2023-03-14T12:02:53;711.17;;;348.53;;
48361;SDS011;34510;51.888;5.670;2023-03-14T12:13:32;721.20;;;375.90;;
48361;SDS011;34510;51.888;5.670;2023-03-14T12:18:37;731.00;;;380.77;;
48361;SDS011;34510;51.888;5.670;2023-03-14T12:23:44;719.73;;;386.23;;
48361;SDS011;34510;51.888;5.670;2023-03-14T12:34:00;721.17;;;394.37;;
48361;SDS011;34510;51.888;5.670;2023-03-14T12:44:51;714.13;;;379.40;;
48361;SDS011;34510;51.888;5.670;2023-03-14T12:49:54;722.77;;;394.03;;
48361;SDS011;34510;51.888;5.670;2023-03-14T13:00:31;716.80;;;386.17;;
48361;SDS011;34510;51.888;5.670;2023-03-14T13:05:35;720.03;;;404.93;;
48361;SDS011;34510;51.888;5.670;2023-03-14T13:10:42;717.95;;;394.05;;
48361;SDS011;34510;51.888;5.670;2023-03-14T13:15:49;724.20;;;409.50;;
48361;SDS011;34510;51.888;5.670;2023-03-14T13:21:19;716.05;;;380.67;;
48361;SDS011;34510;51.888;5.670;2023-03-14T13:26:31;720.22;;;387.83;;
48361;SDS011;34510;51.888;5.670;2023-03-14T13:31:35;719.00;;;397.65;;
48361;SDS011;34510;51.888;5.670;2023-03-14T13:36:37;721.47;;;395.00;;
48361;SDS011;34510;51.888;5.670;2023-03-14T13:41:40;718.42;;;395.58;;
48361;SDS011;34510;51.888;5.670;2023-03-14T13:46:43;722.55;;;389.73;;
48361;SDS011;34510;51.888;5.670;2023-03-14T13:51:45;719.00;;;386.02;;
48361;SDS011;34510;51.888;5.670;2023-03-14T13:56:47;712.33;;;374.33;;
48361;SDS011;34510;51.888;5.670;2023-03-14T14:01:50;720.65;;;379.60;;
48361;SDS011;34510;51.888;5.670;2023-03-14T14:06:54;717.03;;;378.15;;
48361;SDS011;34510;51.888;5.670;2023-03-14T14:12:05;717.92;;;394.70;;
48361;SDS011;34510;51.888;5.670;2023-03-14T14:17:18;721.47;;;388.15;;
48361;SDS011;34510;51.888;5.670;2023-03-14T14:22:24;719.63;;;384.20;;
48361;SDS011;34510;51.888;5.670;2023-03-14T14:27:33;723.65;;;376.77;;
48361;SDS011;34510;51.888;5.670;2023-03-14T14:32:40;709.13;;;356.73;;
48361;SDS011;34510;51.888;5.670;2023-03-14T14:37:43;714.63;;;365.88;;
48361;SDS011;34510;51.888;5.670;2023-03-14T14:42:46;712.05;;;372.65;;
48361;SDS011;34510;51.888;5.670;2023-03-14T14:48:10;724.17;;;377.15;;
48361;SDS011;34510;51.888;5.670;2023-03-14T14:58:45;720.38;;;383.08;;
48361;SDS011;34510;51.888;5.670;2023-03-14T15:03:49;712.25;;;374.98;;
48361;SDS011;34510;51.888;5.670;2023-03-14T15:08:52;716.92;;;376.58;;
48361;SDS011;34510;51.888;5.670;2023-03-14T15:13:54;719.90;;;379.70;;
48361;SDS011;34510;51.888;5.670;2023-03-14T15:18:57;717.38;;;374.83;;
48361;SDS011;34510;51.888;5.670;2023-03-14T15:24:04;719.90;;;372.88;;
48361;SDS011;34510;51.888;5.670;2023-03-14T15:29:08;718.05;;;362.20;;
48361;SDS011;34510;51.888;5.670;2023-03-14T15:34:13;718.03;;;363.20;;
48361;SDS011;34510;51.888;5.670;2023-03-14T15:39:16;714.25;;;360.17;;
48361;SDS011;34510;51.888;5.670;2023-03-14T15:44:18;712.67;;;369.58;;
48361;SDS011;34510;51.888;5.670;2023-03-14T15:49:20;705.90;;;352.80;;
48361;SDS011;34510;51.888;5.670;2023-03-14T15:54:21;707.65;;;350.65;;
48361;SDS011;34510;51.888;5.670;2023-03-14T15:59:24;708.47;;;347.63;;
48361;SDS011;34510;51.888;5.670;2023-03-14T16:04:26;706.83;;;337.67;;
48361;SDS011;34510;51.888;5.670;2023-03-14T16:09:30;708.97;;;337.80;;
48361;SDS011;34510;51.888;5.670;2023-03-14T16:14:32;705.00;;;326.60;;
48361;SDS011;34510;51.888;5.670;2023-03-14T16:19:34;708.67;;;337.02;;
48361;SDS011;34510;51.888;5.670;2023-03-14T16:24:36;708.50;;;325.92;;
48361;SDS011;34510;51.888;5.670;2023-03-14T16:29:38;709.05;;;341.45;;
48361;SDS011;34510;51.888;5.670;2023-03-14T16:34:40;706.63;;;344.03;;
48361;SDS011;34510;51.888;5.670;2023-03-14T16:39:42;704.53;;;336.40;;
48361;SDS011;34510;51.888;5.670;2023-03-14T16:45:04;711.75;;;327.77;;
48361;SDS011;34510;51.888;5.670;2023-03-14T16:50:06;716.00;;;325.53;;
48361;SDS011;34510;51.888;5.670;2023-03-14T16:55:09;711.40;;;354.20;;
48361;SDS011;34510;51.888;5.670;2023-03-14T17:00:11;712.20;;;349.20;;
48361;SDS011;34510;51.888;5.670;2023-03-14T17:05:13;713.83;;;368.47;;
48361;SDS011;34510;51.888;5.670;2023-03-14T17:10:16;707.40;;;342.20;;
48361;SDS011;34510;51.888;5.670;2023-03-14T17:15:18;713.28;;;336.88;;
48361;SDS011;34510;51.888;5.670;2023-03-14T17:20:20;709.15;;;338.10;;
48361;SDS011;34510;51.888;5.670;2023-03-14T17:25:23;716.30;;;340.30;;
48361;SDS011;34510;51.888;5.670;2023-03-14T17:30:24;719.58;;;329.92;;
48361;SDS011;34510;51.888;5.670;2023-03-14T17:35:26;717.65;;;335.27;;
48361;SDS011;34510;51.888;5.670;2023-03-14T17:40:28;712.25;;;333.73;;
48361;SDS011;34510;51.888;5.670;2023-03-14T17:45:31;710.80;;;337.15;;
48361;SDS011;34510;51.888;5.670;2023-03-14T17:50:34;712.33;;;331.52;;
48361;SDS011;34510;51.888;5.670;2023-03-14T17:55:36;708.22;;;331.33;;
48361;SDS011;34510;51.888;5.670;2023-03-14T18:00:38;715.17;;;342.00;;
48361;SDS011;34510;51.888;5.670;2023-03-14T18:05:40;711.23;;;340.10;;
48361;SDS011;34510;51.888;5.670;2023-03-14T18:10:42;710.30;;;312.20;;
48361;SDS011;34510;51.888;5.670;2023-03-14T18:15:45;703.70;;;316.10;;
48361;SDS011;34510;51.888;5.670;2023-03-14T18:20:48;697.73;;;299.20;;
48361;SDS011;34510;51.888;5.670;2023-03-14T18:25:51;710.50;;;315.83;;
48361;SDS011;34510;51.888;5.670;2023-03-14T18:30:58;712.07;;;351.30;;
48361;SDS011;34510;51.888;5.670;2023-03-14T18:36:01;710.30;;;340.43;;
48361;SDS011;34510;51.888;5.670;2023-03-14T18:41:11;711.90;;;340.83;;
48361;SDS011;34510;51.888;5.670;2023-03-14T18:46:14;707.60;;;329.77;;
48361;SDS011;34510;51.888;5.670;2023-03-14T18:51:16;707.17;;;312.67;;
48361;SDS011;34510;51.888;5.670;2023-03-14T18:56:18;697.70;;;296.27;;
48361;SDS011;34510;51.888;5.670;2023-03-14T19:01:20;707.37;;;326.13;;
48361;SDS011;34510;51.888;5.670;2023-03-14T19:06:23;699.37;;;316.23;;
48361;SDS011;34510;51.888;5.670;2023-03-14T19:11:25;714.77;;;335.07;;
48361;SDS011;34510;51.888;5.670;2023-03-14T19:16:27;708.83;;;321.60;;
48361;SDS011;34510;51.888;5.670;2023-03-14T19:21:33;702.37;;;307.83;;
48361;SDS011;34510;51.888;5.670;2023-03-14T19:26:35;707.97;;;305.83;;
48361;SDS011;34510;51.888;5.670;2023-03-14T19:31:38;717.20;;;340.60;;
48361;SDS011;34510;51.888;5.670;2023-03-14T19:36:41;728.63;;;394.03;;
48361;SDS011;34510;51.888;5.670;2023-03-14T19:41:43;706.47;;;327.93;;
48361;SDS011;34510;51.888;5.670;2023-03-14T19:46:44;707.63;;;318.13;;
48361;SDS011;34510;51.888;5.670;2023-03-14T19:51:47;712.53;;;341.67;;
48361;SDS011;34510;51.888;5.670;2023-03-14T19:56:49;707.20;;;318.17;;
48361;SDS011;34510;51.888;5.670;2023-03-14T20:01:52;706.17;;;313.40;;
48361;SDS011;34510;51.888;5.670;2023-03-14T20:06:55;699.33;;;288.67;;
48361;SDS011;34510;51.888;5.670;2023-03-14T20:11:57;698.97;;;272.80;;
48361;SDS011;34510;51.888;5.670;2023-03-14T20:16:59;702.33;;;280.43;;
48361;SDS011;34510;51.888;5.670;2023-03-14T20:22:01;697.17;;;268.93;;
48361;SDS011;34510;51.888;5.670;2023-03-14T20:27:04;694.33;;;263.57;;
48361;SDS011;34510;51.888;5.670;2023-03-14T20:32:06;697.23;;;275.23;;
48361;SDS011;34510;51.888;5.670;2023-03-14T20:37:10;703.42;;;296.45;;
48361;SDS011;34510;51.888;5.670;2023-03-14T20:42:14;707.33;;;288.33;;
48361;SDS011;34510;51.888;5.670;2023-03-14T20:47:16;698.38;;;263.23;;
48361;SDS011;34510;51.888;5.670;2023-03-14T20:52:18;696.03;;;258.67;;
48361;SDS011;34510;51.888;5.670;2023-03-14T20:57:20;703.17;;;257.65;;
48361;SDS011;34510;51.888;5.670;2023-03-14T21:02:22;701.63;;;266.15;;
48361;SDS011;34510;51.888;5.670;2023-03-14T21:07:24;702.63;;;271.50;;
48361;SDS011;34510;51.888;5.670;2023-03-14T21:12:26;693.63;;;256.50;;
48361;SDS011;34510;51.888;5.670;2023-03-14T21:17:28;696.78;;;268.10;;
48361;SDS011;34510;51.888;5.670;2023-03-14T21:22:31;702.33;;;266.42;;
48361;SDS011;34510;51.888;5.670;2023-03-14T21:27:32;698.83;;;271.98;;
48361;SDS011;34510;51.888;5.670;2023-03-14T21:32:34;694.60;;;255.70;;
48361;SDS011;34510;51.888;5.670;2023-03-14T21:37:36;694.33;;;252.10;;
48361;SDS011;34510;51.888;5.670;2023-03-14T21:42:38;689.07;;;255.27;;
48361;SDS011;34510;51.888;5.670;2023-03-14T21:47:41;690.13;;;258.57;;
48361;SDS011;34510;51.888;5.670;2023-03-14T21:52:45;703.87;;;300.30;;
48361;SDS011;34510;51.888;5.670;2023-03-14T21:57:47;694.77;;;277.40;;
48361;SDS011;34510;51.888;5.670;2023-03-14T22:02:50;679.72;;;226.35;;
48361;SDS011;34510;51.888;5.670;2023-03-14T22:08:14;684.83;;;236.27;;
48361;SDS011;34510;51.888;5.670;2023-03-14T22:13:17;694.03;;;272.17;;
48361;SDS011;34510;51.888;5.670;2023-03-14T22:18:20;695.83;;;274.27;;
48361;SDS011;34510;51.888;5.670;2023-03-14T22:23:22;691.13;;;269.87;;
48361;SDS011;34510;51.888;5.670;2023-03-14T22:28:24;694.00;;;269.83;;
48361;SDS011;34510;51.888;5.670;2023-03-14T22:33:26;691.83;;;271.17;;
48361;SDS011;34510;51.888;5.670;2023-03-14T22:38:27;690.47;;;265.33;;
48361;SDS011;34510;51.888;5.670;2023-03-14T22:43:29;691.63;;;266.10;;
48361;SDS011;34510;51.888;5.670;2023-03-14T22:48:32;692.13;;;276.43;;
48361;SDS011;34510;51.888;5.670;2023-03-14T22:53:34;696.57;;;290.90;;
48361;SDS011;34510;51.888;5.670;2023-03-14T22:58:37;709.90;;;327.97;;
48361;SDS011;34510;51.888;5.670;2023-03-14T23:03:39;712.17;;;331.93;;
48361;SDS011;34510;51.888;5.670;2023-03-14T23:08:41;692.27;;;289.33;;
48361;SDS011;34510;51.888;5.670;2023-03-14T23:13:43;691.20;;;278.20;;
48361;SDS011;34510;51.888;5.670;2023-03-14T23:18:48;687.50;;;256.77;;
48361;SDS011;34510;51.888;5.670;2023-03-14T23:23:50;693.77;;;268.53;;
48361;SDS011;34510;51.888;5.670;2023-03-14T23:28:52;693.67;;;259.13;;
48361;SDS011;34510;51.888;5.670;2023-03-14T23:33:55;685.23;;;246.03;;
48361;SDS011;34510;51.888;5.670;2023-03-14T23:38:57;680.43;;;240.17;;
48361;SDS011;34510;51.888;5.670;2023-03-14T23:43:58;685.30;;;258.80;;
48361;SDS011;34510;51.888;5.670;2023-03-14T23:49:02;684.83;;;254.90;;
48361;SDS011;34510;51.888;5.670;2023-03-14T23:54:04;695.03;;;281.50;;
48361;SDS011;34510;51.888;5.670;2023-03-14T23:59:06;691.10;;;274.63;;
